Time;durP1;ratioP1;P1;durP2;ratioP2;P2;SDS_P1;SDS_P2;PMS_P1;PMS_P2;Temp;Humidity;BMP_temperature;BMP_pressure;BME280_temperature;BME280_humidity;BME280_pressure;Samples;Min_cycle;Max_cycle;Signal;HPM_P1;HPM_P2
2021/12/27 00:00:46;;;;;;;55.53;20.73;;;;;;;-143.35;100.00;58682.94;5016868;28;20025;-51
2021/12/27 00:03:12;;;;;;;55.92;20.83;;;;;;;-143.35;100.00;58682.94;5016857;28;20477;-51
2021/12/27 00:05:38;;;;;;;54.15;20.42;;;;;;;-143.35;100.00;58682.94;5016982;28;20028;-49
2021/12/27 00:08:03;;;;;;;49.78;19.52;;;;;;;-143.35;100.00;58682.94;5016831;28;20026;-49
2021/12/27 00:10:29;;;;;;;54.47;19.15;;;;;;;-143.35;100.00;58682.94;5016869;28;20057;-49
2021/12/27 00:12:55;;;;;;;43.08;18.75;;;;;;;-143.35;100.00;58682.94;5015550;28;20057;-48
2021/12/27 00:15:21;;;;;;;50.30;20.02;;;;;;;-143.35;100.00;58682.94;5016779;28;20429;-49
2021/12/27 00:17:47;;;;;;;56.05;19.13;;;;;;;-143.35;100.00;58682.94;5016608;28;20469;-48
2021/12/27 00:20:18;;;;;;;50.90;18.65;;;;;;;-143.35;100.00;58682.94;5016590;28;20049;-49
2021/12/27 00:22:45;;;;;;;57.65;18.77;;;;;;;-143.35;100.00;58682.94;5016621;28;20022;-50
2021/12/27 00:25:12;;;;;;;45.67;18.38;;;;;;;-143.35;100.00;58682.94;5017025;28;20443;-48
2021/12/27 00:27:37;;;;;;;47.65;20.10;;;;;;;-143.35;100.00;58682.94;5016569;28;20087;-48
2021/12/27 00:30:04;;;;;;;49.72;17.05;;;;;;;-143.35;100.00;58682.94;5016607;28;20026;-49
2021/12/27 00:32:30;;;;;;;42.25;17.80;;;;;;;-143.35;100.00;58682.94;5016413;28;20026;-49
2021/12/27 00:34:55;;;;;;;48.67;17.30;;;;;;;-143.35;100.00;58682.94;5016371;28;20029;-49
2021/12/27 00:37:20;;;;;;;38.38;15.85;;;;;;;-143.35;100.00;58682.94;5015533;28;20492;-50
2021/12/27 00:39:46;;;;;;;43.20;16.95;;;;;;;-143.35;100.00;58682.94;5016147;28;20034;-48
2021/12/27 00:42:11;;;;;;;48.53;18.52;;;;;;;-143.35;100.00;58682.94;5016050;28;20030;-48
2021/12/27 00:44:36;;;;;;;39.13;16.15;;;;;;;-143.35;100.00;58682.94;5016028;28;20037;-51
2021/12/27 00:47:03;;;;;;;38.85;18.38;;;;;;;-143.35;100.00;58682.94;5016103;28;20024;-51
2021/12/27 00:49:29;;;;;;;38.50;16.38;;;;;;;-143.35;100.00;58682.94;5016049;28;20072;-50
2021/12/27 00:51:54;;;;;;;38.00;17.75;;;;;;;-143.35;100.00;58682.94;5015942;28;20029;-50
2021/12/27 00:54:20;;;;;;;36.13;14.70;;;;;;;-143.35;100.00;58682.94;5016024;28;20032;-49
2021/12/27 00:56:45;;;;;;;36.10;16.08;;;;;;;-143.35;100.00;58682.94;5015866;28;20109;-49
2021/12/27 00:59:11;;;;;;;40.10;17.25;;;;;;;-143.35;100.00;58682.94;5015977;28;20030;-49
2021/12/27 01:01:36;;;;;;;35.42;16.33;;;;;;;-143.35;100.00;58682.94;5015615;28;20025;-48
2021/12/27 01:04:06;;;;;;;45.38;19.55;;;;;;;-143.35;100.00;58682.94;5015807;28;20393;-51
2021/12/27 01:06:32;;;;;;;36.03;15.55;;;;;;;-143.35;100.00;58682.94;5015794;28;20064;-48
2021/12/27 01:08:58;;;;;;;41.75;17.35;;;;;;;-143.35;100.00;58682.94;5015676;28;20055;-49
2021/12/27 01:11:55;;;;;;;34.22;15.27;;;;;;;-143.35;100.00;58682.94;5015467;28;20045;-50
2021/12/27 01:14:37;;;;;;;42.80;17.17;;;;;;;-143.35;100.00;58682.94;5015517;28;20046;-51
2021/12/27 01:17:03;;;;;;;38.28;16.40;;;;;;;-143.35;100.00;58682.94;5015485;28;20554;-48
2021/12/27 01:19:28;;;;;;;40.40;16.25;;;;;;;-143.35;100.00;58682.94;5015409;28;20100;-49
2021/12/27 01:21:53;;;;;;;40.97;16.70;;;;;;;-143.35;100.00;58682.94;5015401;28;20030;-48
2021/12/27 01:24:19;;;;;;;38.80;15.85;;;;;;;-143.35;100.00;58682.94;5015281;28;20025;-49
2021/12/27 01:26:44;;;;;;;37.88;16.85;;;;;;;-143.35;100.00;58682.94;5015355;28;20018;-49
2021/12/27 01:29:09;;;;;;;40.80;17.95;;;;;;;-143.35;100.00;58682.94;5015276;28;20096;-49
2021/12/27 01:31:35;;;;;;;35.22;15.65;;;;;;;-143.35;100.00;58682.94;5013768;28;20034;-50
2021/12/27 01:34:00;;;;;;;40.58;17.88;;;;;;;-143.35;100.00;58682.94;5015317;28;20165;-49
2021/12/27 01:36:31;;;;;;;39.47;16.30;;;;;;;-143.35;100.00;58682.94;5015310;28;20112;-48
2021/12/27 01:38:56;;;;;;;39.17;17.40;;;;;;;-143.35;100.00;58682.94;5015112;28;20512;-48
2021/12/27 01:41:22;;;;;;;39.83;17.58;;;;;;;-143.35;100.00;58682.94;5014966;28;20049;-49
2021/12/27 01:43:47;;;;;;;35.40;16.00;;;;;;;-143.35;100.00;58682.94;5015149;28;20095;-49
2021/12/27 01:46:20;;;;;;;37.78;16.52;;;;;;;-143.35;100.00;58682.94;5015090;28;20026;-48
2021/12/27 01:48:54;;;;;;;37.83;16.33;;;;;;;-143.35;100.00;58682.94;5014102;28;20030;-51
2021/12/27 01:51:20;;;;;;;34.40;15.13;;;;;;;-143.35;100.00;58682.94;5015009;28;20117;-52
2021/12/27 01:53:47;;;;;;;40.55;17.38;;;;;;;-143.35;100.00;58682.94;5015032;28;20032;-51
2021/12/27 01:56:15;;;;;;;42.33;16.42;;;;;;;-143.35;100.00;58682.94;5014829;28;20022;-48
2021/12/27 01:58:42;;;;;;;42.25;15.98;;;;;;;-143.35;100.00;58682.94;5014841;28;20033;-48
2021/12/27 02:01:09;;;;;;;50.60;18.63;;;;;;;-143.35;100.00;58682.94;5014745;28;20808;-52
2021/12/27 02:03:35;;;;;;;39.28;17.02;;;;;;;-143.35;100.00;58682.94;5014657;28;20532;-50
2021/12/27 02:06:00;;;;;;;40.20;18.73;;;;;;;-143.35;100.00;58682.94;5014617;28;20102;-49
2021/12/27 02:08:27;;;;;;;43.15;17.63;;;;;;;-143.35;100.00;58682.94;5014714;28;20081;-50
2021/12/27 02:10:53;;;;;;;37.30;17.65;;;;;;;-143.35;100.00;58682.94;5013182;28;20483;-51
2021/12/27 02:13:18;;;;;;;45.75;17.05;;;;;;;-143.35;100.00;58682.94;5014478;28;20076;-50
2021/12/27 02:15:44;;;;;;;44.90;17.25;;;;;;;-143.35;100.00;58682.94;5014560;28;20033;-49
2021/12/27 02:18:09;;;;;;;42.85;17.58;;;;;;;-143.35;100.00;58682.94;5014504;28;20033;-49
2021/12/27 02:20:38;;;;;;;43.40;17.80;;;;;;;-143.35;100.00;58682.94;5014335;28;20385;-48
2021/12/27 02:23:11;;;;;;;44.13;19.23;;;;;;;-143.35;100.00;58682.94;5014394;28;20036;-48
2021/12/27 02:25:36;;;;;;;46.25;18.45;;;;;;;-143.35;100.00;58682.94;5014430;28;20044;-49
2021/12/27 02:28:04;;;;;;;46.75;17.63;;;;;;;-143.35;100.00;58682.94;5014310;28;20037;-51
2021/12/27 02:30:30;;;;;;;40.00;16.23;;;;;;;-143.35;100.00;58682.94;5014546;28;20397;-49
2021/12/27 02:33:04;;;;;;;48.58;17.05;;;;;;;-143.35;100.00;58682.94;5014225;28;20033;-49
2021/12/27 02:35:33;;;;;;;45.42;17.63;;;;;;;-143.35;100.00;58682.94;5014484;28;20034;-50
2021/12/27 02:38:01;;;;;;;42.28;18.00;;;;;;;-143.35;100.00;58682.94;5014466;28;20346;-48
2021/12/27 02:40:28;;;;;;;40.83;17.70;;;;;;;-143.35;100.00;58682.94;5006459;28;20025;-50
2021/12/27 02:42:59;;;;;;;45.60;19.00;;;;;;;-143.35;100.00;58682.94;5014259;28;20061;-49
2021/12/27 02:45:26;;;;;;;41.90;17.35;;;;;;;-143.35;100.00;58682.94;4999429;28;20030;-48
2021/12/27 02:47:52;;;;;;;50.35;19.23;;;;;;;-143.35;100.00;58682.94;4994532;28;20034;-49
2021/12/27 02:50:18;;;;;;;38.80;16.73;;;;;;;-143.35;100.00;58682.94;4994566;28;20057;-48
2021/12/27 02:52:45;;;;;;;42.22;17.80;;;;;;;-143.35;100.00;58682.94;4994606;28;20073;-48
2021/12/27 02:55:12;;;;;;;44.00;18.48;;;;;;;-143.35;100.00;58682.94;4994574;28;20540;-49
2021/12/27 02:57:38;;;;;;;45.92;17.88;;;;;;;-143.35;100.00;58682.94;4994392;28;20022;-48
2021/12/27 03:00:05;;;;;;;44.13;16.63;;;;;;;-143.35;100.00;58682.94;4994974;28;20089;-52
2021/12/27 03:02:30;;;;;;;46.92;16.73;;;;;;;-143.35;100.00;58682.94;4998497;28;20076;-52
2021/12/27 03:04:55;;;;;;;48.67;17.08;;;;;;;-143.35;100.00;58682.94;4998827;28;20121;-49
2021/12/27 03:07:21;;;;;;;56.25;18.02;;;;;;;-143.35;100.00;58682.94;4998560;28;20034;-50
2021/12/27 03:09:46;;;;;;;46.35;18.90;;;;;;;-143.35;100.00;58682.94;4998472;28;20149;-48
2021/12/27 03:12:12;;;;;;;46.92;18.27;;;;;;;-143.35;100.00;58682.94;5012956;23;20535;-51
2021/12/27 03:14:38;;;;;;;43.45;16.90;;;;;;;-143.35;100.00;58682.94;5018205;28;20124;-50
2021/12/27 03:17:05;;;;;;;45.72;17.70;;;;;;;-143.35;100.00;58682.94;5017779;28;20491;-49
2021/12/27 03:19:30;;;;;;;45.13;18.20;;;;;;;-143.35;100.00;58682.94;5017879;28;20479;-49
2021/12/27 03:21:56;;;;;;;65.32;18.90;;;;;;;-143.35;100.00;58682.94;5017751;28;20018;-49
2021/12/27 03:24:22;;;;;;;47.70;21.92;;;;;;;-143.35;100.00;58682.94;5017789;28;20436;-50
2021/12/27 03:26:48;;;;;;;57.92;19.42;;;;;;;-143.35;100.00;58682.94;5017880;28;20029;-49
2021/12/27 03:29:13;;;;;;;59.17;20.67;;;;;;;-143.35;100.00;58682.94;5017576;28;20080;-50
2021/12/27 03:31:39;;;;;;;53.05;19.85;;;;;;;-143.35;100.00;58682.94;5017533;28;20050;-52
2021/12/27 03:34:04;;;;;;;58.75;21.40;;;;;;;-143.35;100.00;58682.94;5017503;28;20034;-48
2021/12/27 03:36:37;;;;;;;55.30;20.33;;;;;;;-143.35;100.00;58682.94;5016186;28;20104;-49
2021/12/27 03:39:06;;;;;;;67.25;20.88;;;;;;;-143.35;100.00;58682.94;5017540;28;20477;-49
2021/12/27 03:41:31;;;;;;;56.75;20.50;;;;;;;-143.35;100.00;58682.94;5017293;28;20068;-48
2021/12/27 03:43:56;;;;;;;64.93;20.48;;;;;;;-143.35;100.00;58682.94;5017416;28;20061;-50
2021/12/27 03:46:22;;;;;;;73.43;23.75;;;;;;;-143.35;100.00;58682.94;5016035;28;20057;-49
2021/12/27 03:48:47;;;;;;;67.25;22.45;;;;;;;-143.35;100.00;58682.94;5017357;28;20034;-48
2021/12/27 03:51:13;;;;;;;58.22;21.83;;;;;;;-143.35;100.00;58682.94;5017096;28;20112;-52
2021/12/27 03:53:38;;;;;;;62.30;21.75;;;;;;;-143.35;100.00;58682.94;5017199;28;20040;-51
2021/12/27 03:56:04;;;;;;;63.88;20.95;;;;;;;-143.35;100.00;58682.94;5017160;28;20060;-48
2021/12/27 03:58:34;;;;;;;70.45;22.23;;;;;;;-143.35;100.00;58682.94;5017095;28;20431;-49
2021/12/27 04:01:13;;;;;;;59.55;22.45;;;;;;;-143.35;100.00;58682.94;5016979;28;20481;-51
2021/12/27 04:03:38;;;;;;;78.60;24.27;;;;;;;-143.35;100.00;58682.94;5016905;28;20022;-51
2021/12/27 04:06:04;;;;;;;81.65;26.52;;;;;;;-143.35;100.00;58682.94;5016931;28;20351;-52
2021/12/27 04:08:29;;;;;;;73.90;23.92;;;;;;;-143.35;100.00;58682.94;5016783;28;20025;-50
2021/12/27 04:10:55;;;;;;;75.05;23.45;;;;;;;-143.35;100.00;58682.94;5015587;28;20033;-49
2021/12/27 04:13:22;;;;;;;74.63;23.05;;;;;;;-143.35;100.00;58682.94;5015337;28;20042;-48
2021/12/27 04:15:49;;;;;;;64.75;24.13;;;;;;;-143.35;100.00;58682.94;5016718;28;20109;-49
2021/12/27 04:18:14;;;;;;;69.80;22.60;;;;;;;-143.35;100.00;58682.94;5016705;28;20538;-50
2021/12/27 04:20:40;;;;;;;77.13;25.67;;;;;;;-143.35;100.00;58682.94;5016567;28;20057;-48
2021/12/27 04:23:06;;;;;;;64.53;21.85;;;;;;;-143.35;100.00;58682.94;5016637;28;20030;-48
2021/12/27 04:25:31;;;;;;;61.28;21.02;;;;;;;-143.35;100.00;58682.94;5017360;28;20022;-49
2021/12/27 04:27:57;;;;;;;78.10;25.48;;;;;;;-143.35;100.00;58682.94;5016867;28;20051;-48
2021/12/27 04:30:22;;;;;;;78.45;25.48;;;;;;;-143.35;100.00;58682.94;5016509;28;20022;-49
2021/12/27 04:32:51;;;;;;;74.30;22.85;;;;;;;-143.35;100.00;58682.94;5016298;28;20018;-49
2021/12/27 04:35:19;;;;;;;72.20;22.60;;;;;;;-143.35;100.00;58682.94;5016535;28;20025;-49
2021/12/27 04:37:46;;;;;;;78.60;20.42;;;;;;;-143.35;100.00;58682.94;5016268;28;20028;-50
2021/12/27 04:40:13;;;;;;;58.90;22.23;;;;;;;-143.35;100.00;58682.94;5016281;28;20034;-49
2021/12/27 04:42:42;;;;;;;64.68;20.60;;;;;;;-143.35;100.00;58682.94;5016236;28;20032;-49
2021/12/27 04:45:07;;;;;;;67.55;20.10;;;;;;;-143.35;100.00;58682.94;5016133;28;20034;-49
2021/12/27 04:47:33;;;;;;;62.70;21.35;;;;;;;-143.35;100.00;58682.94;5016225;28;20113;-49
2021/12/27 04:49:59;;;;;;;71.47;22.10;;;;;;;-143.35;100.00;58682.94;5016246;28;20026;-48
2021/12/27 04:52:24;;;;;;;85.47;22.77;;;;;;;-143.35;100.00;58682.94;5016089;28;20109;-48
2021/12/27 04:54:50;;;;;;;64.78;19.58;;;;;;;-143.35;100.00;58682.94;5015998;28;20025;-51
2021/12/27 04:57:16;;;;;;;77.10;20.08;;;;;;;-143.35;100.00;58682.94;5016049;28;20045;-50
2021/12/27 04:59:42;;;;;;;78.85;21.77;;;;;;;-143.35;100.00;58682.94;5015950;28;20030;-50
2021/12/27 05:02:07;;;;;;;614.75;317.55;;;;;;;-143.35;100.00;58682.94;5015891;28;20084;-51
2021/12/27 05:04:33;;;;;;;1999.90;999.90;;;;;;;-143.35;100.00;58682.94;5015765;28;20022;-49
2021/12/27 05:06:58;;;;;;;58.10;23.15;;;;;;;-143.35;100.00;58682.94;5015818;28;20034;-52
2021/12/27 05:09:23;;;;;;;74.10;36.53;;;;;;;-143.35;100.00;58682.94;5015716;28;20099;-51
2021/12/27 05:11:49;;;;;;;1505.85;751.60;;;;;;;-143.35;100.00;58682.94;5015536;28;20053;-48
2021/12/27 05:14:14;;;;;;;248.00;39.30;;;;;;;-143.35;100.00;58682.94;5015543;28;20045;-50
2021/12/27 05:16:40;;;;;;;214.30;41.50;;;;;;;-143.35;100.00;58682.94;5015557;28;20026;-49
2021/12/27 05:19:06;;;;;;;173.57;38.67;;;;;;;-143.35;100.00;58682.94;5015559;28;20049;-50
2021/12/27 05:21:32;;;;;;;261.10;37.78;;;;;;;-143.35;100.00;58682.94;5015609;28;20432;-49
2021/12/27 05:23:57;;;;;;;290.45;50.85;;;;;;;-143.35;100.00;58682.94;5015146;28;20041;-51
2021/12/27 05:26:22;;;;;;;215.20;37.05;;;;;;;-143.35;100.00;58682.94;5015456;28;20514;-49
2021/12/27 05:28:48;;;;;;;202.73;35.28;;;;;;;-143.35;100.00;58682.94;5015260;28;20029;-48
2021/12/27 05:31:13;;;;;;;140.50;31.17;;;;;;;-143.35;100.00;58682.94;5015230;28;20029;-49
2021/12/27 05:33:38;;;;;;;126.28;30.65;;;;;;;-143.35;100.00;58682.94;5015352;28;20026;-52
2021/12/27 05:36:04;;;;;;;199.18;36.03;;;;;;;-143.35;100.00;58682.94;5015471;28;20036;-50
2021/12/27 05:38:30;;;;;;;182.77;33.75;;;;;;;-143.35;100.00;58682.94;5015228;28;20026;-49
2021/12/27 05:40:56;;;;;;;154.07;31.85;;;;;;;-143.35;100.00;58682.94;5015115;28;20054;-50
2021/12/27 05:43:23;;;;;;;139.75;30.58;;;;;;;-143.35;100.00;58682.94;5015092;28;20026;-52
2021/12/27 05:45:48;;;;;;;172.73;31.63;;;;;;;-143.35;100.00;58682.94;5015037;28;20087;-49
2021/12/27 05:48:15;;;;;;;155.43;31.80;;;;;;;-143.35;100.00;58682.94;5015046;28;20022;-50
2021/12/27 05:50:41;;;;;;;147.20;32.50;;;;;;;-143.35;100.00;58682.94;5015021;28;20469;-51
2021/12/27 05:53:07;;;;;;;113.47;31.42;;;;;;;-143.35;100.00;58682.94;5014907;28;20077;-48
2021/12/27 05:55:32;;;;;;;114.13;31.23;;;;;;;-143.35;100.00;58682.94;5014857;28;20492;-48
2021/12/27 05:57:58;;;;;;;131.50;33.55;;;;;;;-143.35;100.00;58682.94;5014790;28;20030;-49
2021/12/27 06:00:23;;;;;;;111.63;30.08;;;;;;;-143.35;100.00;58682.94;5014968;28;20022;-49
2021/12/27 06:02:51;;;;;;;129.40;33.20;;;;;;;-143.35;100.00;58682.94;5014632;28;20110;-50
2021/12/27 06:05:17;;;;;;;115.22;33.88;;;;;;;-143.35;100.00;58682.94;5014529;28;20037;-49
2021/12/27 06:07:43;;;;;;;109.80;30.73;;;;;;;-143.35;100.00;58682.94;5013518;28;20029;-49
2021/12/27 06:10:09;;;;;;;121.07;32.58;;;;;;;-143.35;100.00;58682.94;5014605;28;20069;-49
2021/12/27 06:12:35;;;;;;;120.07;33.08;;;;;;;-143.35;100.00;58682.94;5014304;28;20068;-49
2021/12/27 06:15:00;;;;;;;113.32;30.30;;;;;;;-143.35;100.00;58682.94;5014526;28;20045;-49
2021/12/27 06:17:25;;;;;;;124.03;32.10;;;;;;;-143.35;100.00;58682.94;5014647;28;20028;-51
2021/12/27 06:19:51;;;;;;;117.22;33.42;;;;;;;-143.35;100.00;58682.94;5014615;28;20381;-49
2021/12/27 06:22:17;;;;;;;124.97;32.17;;;;;;;-143.35;100.00;58682.94;5013087;28;20030;-49
2021/12/27 06:24:42;;;;;;;123.03;32.88;;;;;;;-143.35;100.00;58682.94;5014610;28;20108;-50
2021/12/27 06:27:08;;;;;;;126.75;32.03;;;;;;;-143.35;100.00;58682.94;5014277;28;20091;-49
2021/12/27 06:29:36;;;;;;;124.68;33.05;;;;;;;-143.35;100.00;58682.94;5014407;28;20025;-49
2021/12/27 06:32:01;;;;;;;113.93;30.45;;;;;;;-143.35;100.00;58682.94;5012517;28;20022;-50
2021/12/27 06:34:27;;;;;;;98.40;31.10;;;;;;;-143.35;100.00;58682.94;5013974;28;20075;-50
2021/12/27 06:36:52;;;;;;;106.53;31.65;;;;;;;-143.35;100.00;58682.94;5013832;28;20022;-50
2021/12/27 06:39:17;;;;;;;109.30;31.30;;;;;;;-143.35;100.00;58682.94;5014208;28;20021;-49
2021/12/27 06:41:43;;;;;;;111.40;32.90;;;;;;;-143.35;100.00;58682.94;5014195;28;20061;-49
2021/12/27 06:44:08;;;;;;;111.68;32.78;;;;;;;-143.35;100.00;58682.94;5014282;28;20026;-50
2021/12/27 06:46:34;;;;;;;100.50;31.60;;;;;;;-143.35;100.00;58682.94;5014700;28;20087;-49
2021/12/27 06:48:59;;;;;;;85.68;30.02;;;;;;;-143.35;100.00;58682.94;5014271;28;20542;-48
2021/12/27 06:51:24;;;;;;;100.38;31.52;;;;;;;-143.35;100.00;58682.94;5014212;28;20032;-48
2021/12/27 06:53:50;;;;;;;91.88;27.02;;;;;;;-143.35;100.00;58682.94;5014101;28;20476;-49
2021/12/27 06:56:15;;;;;;;82.32;26.27;;;;;;;-143.35;100.00;58682.94;5014066;28;20034;-49
2021/12/27 06:58:41;;;;;;;91.50;29.20;;;;;;;-143.35;100.00;58682.94;5014012;28;20486;-48
2021/12/27 07:01:07;;;;;;;78.22;26.25;;;;;;;-143.35;100.00;58682.94;5014213;28;20030;-49
2021/12/27 07:03:32;;;;;;;91.97;27.98;;;;;;;-143.35;100.00;58682.94;5013801;28;20036;-48
2021/12/27 07:05:57;;;;;;;83.57;26.70;;;;;;;-143.35;100.00;58682.94;5013896;28;20492;-50
2021/12/27 07:08:23;;;;;;;71.93;26.77;;;;;;;-143.35;100.00;58682.94;5013964;28;20409;-49
2021/12/27 07:10:49;;;;;;;88.10;29.25;;;;;;;-143.35;100.00;58682.94;5013921;28;20132;-48
2021/12/27 07:13:15;;;;;;;89.40;28.25;;;;;;;-143.35;100.00;58682.94;5013655;28;20077;-51
2021/12/27 07:15:41;;;;;;;70.93;26.83;;;;;;;-143.35;100.00;58682.94;5013932;28;20111;-51
2021/12/27 07:18:11;;;;;;;80.60;27.00;;;;;;;-143.35;100.00;58682.94;5014004;28;20068;-48
2021/12/27 07:20:37;;;;;;;74.90;26.77;;;;;;;-143.35;100.00;58682.94;5013815;28;20121;-50
2021/12/27 07:23:04;;;;;;;72.53;26.10;;;;;;;-143.35;100.00;58682.94;5013855;28;20125;-48
2021/12/27 07:25:29;;;;;;;76.22;27.60;;;;;;;-143.35;100.00;58682.94;5013856;28;20359;-49
2021/12/27 07:27:55;;;;;;;78.78;27.30;;;;;;;-143.35;100.00;58682.94;5013718;28;20030;-51
2021/12/27 07:30:20;;;;;;;75.60;27.10;;;;;;;-143.35;100.00;58682.94;5013731;28;20026;-52
2021/12/27 07:32:46;;;;;;;77.93;25.85;;;;;;;-143.35;100.00;58682.94;5013735;28;20064;-49
2021/12/27 07:35:11;;;;;;;72.28;26.40;;;;;;;-143.35;100.00;58682.94;5013635;28;20021;-50
2021/12/27 07:37:38;;;;;;;71.25;26.40;;;;;;;-143.35;100.00;58682.94;5013706;28;20076;-49
2021/12/27 07:40:04;;;;;;;73.20;27.38;;;;;;;-143.35;100.00;58682.94;5013695;28;20026;-51
2021/12/27 07:42:29;;;;;;;84.53;27.85;;;;;;;-143.35;100.00;58682.94;5013452;28;20436;-49
2021/12/27 07:44:55;;;;;;;75.35;26.45;;;;;;;-143.35;100.00;58682.94;5013564;28;20025;-49
2021/12/27 07:47:20;;;;;;;82.82;30.38;;;;;;;-143.35;100.00;58682.94;5016145;28;20025;-49
2021/12/27 07:49:46;;;;;;;86.43;28.23;;;;;;;-143.35;100.00;58682.94;5017279;28;20030;-51
2021/12/27 07:52:11;;;;;;;87.30;29.67;;;;;;;-143.35;100.00;58682.94;5017213;28;20029;-51
2021/12/27 07:54:37;;;;;;;90.65;32.60;;;;;;;-143.35;100.00;58682.94;5017059;28;20026;-49
2021/12/27 07:57:03;;;;;;;99.15;31.40;;;;;;;-143.35;100.00;58682.94;5017096;28;20029;-49
2021/12/27 07:59:28;;;;;;;90.60;30.05;;;;;;;-143.35;100.00;58682.94;5016988;28;20041;-51
2021/12/27 08:01:54;;;;;;;101.68;30.90;;;;;;;-143.35;100.00;58682.94;5016879;28;20105;-48
2021/12/27 08:04:19;;;;;;;90.60;30.42;;;;;;;-143.35;100.00;58682.94;5016951;28;20022;-49
2021/12/27 08:06:45;;;;;;;90.50;30.23;;;;;;;-143.35;100.00;58682.94;5016663;28;20070;-49
2021/12/27 08:09:10;;;;;;;90.30;31.08;;;;;;;-143.35;100.00;58682.94;5016792;28;20511;-50
2021/12/27 08:11:36;;;;;;;89.22;30.52;;;;;;;-143.35;100.00;58682.94;5016812;28;20022;-51
2021/12/27 08:14:02;;;;;;;85.07;30.05;;;;;;;-143.35;100.00;58682.94;5016643;28;20062;-51
2021/12/27 08:16:28;;;;;;;75.20;26.40;;;;;;;-143.35;100.00;58682.94;5016701;28;20048;-49
2021/12/27 08:18:54;;;;;;;71.13;25.15;;;;;;;-143.35;100.00;58682.94;5016649;28;20393;-49
2021/12/27 08:21:21;;;;;;;62.45;22.45;;;;;;;-143.35;100.00;58682.94;5016572;28;20350;-50
2021/12/27 08:23:47;;;;;;;57.10;22.75;;;;;;;-143.35;100.00;58682.94;5016566;28;20511;-49
2021/12/27 08:26:13;;;;;;;57.58;22.50;;;;;;;-143.35;100.00;58682.94;5016854;28;20491;-48
2021/12/27 08:28:38;;;;;;;55.38;21.52;;;;;;;-143.35;100.00;58682.94;5016684;28;20029;-48
2021/12/27 08:31:03;;;;;;;56.67;21.27;;;;;;;-143.35;100.00;58682.94;5016431;28;20006;-49
2021/12/27 08:33:29;;;;;;;48.13;19.83;;;;;;;-143.35;100.00;58682.94;5016483;28;20026;-48
2021/12/27 08:35:55;;;;;;;39.50;17.60;;;;;;;-143.35;100.00;58682.94;5016272;28;20025;-48
2021/12/27 08:38:21;;;;;;;39.25;17.65;;;;;;;-143.35;100.00;58682.94;5015015;28;20040;-49
2021/12/27 08:40:46;;;;;;;41.08;18.52;;;;;;;-143.35;100.00;58682.94;5016232;28;20477;-48
2021/12/27 08:43:12;;;;;;;41.65;17.40;;;;;;;-143.35;100.00;58682.94;5016169;28;20461;-49
2021/12/27 08:45:37;;;;;;;32.92;15.95;;;;;;;-143.35;100.00;58682.94;5016194;28;20407;-50
2021/12/27 08:48:03;;;;;;;38.58;16.67;;;;;;;-143.35;100.00;58682.94;5016135;28;20040;-48
2021/12/27 08:50:29;;;;;;;34.80;15.63;;;;;;;-143.35;100.00;58682.94;5016026;28;20514;-49
2021/12/27 08:52:55;;;;;;;30.13;15.40;;;;;;;-143.35;100.00;58682.94;5014818;28;20026;-49
2021/12/27 08:55:22;;;;;;;38.10;16.83;;;;;;;-143.35;100.00;58682.94;5013097;28;20034;-49
2021/12/27 08:57:48;;;;;;;39.50;17.90;;;;;;;-143.35;100.00;58682.94;5015563;28;20033;-48
2021/12/27 09:00:16;;;;;;;34.67;16.02;;;;;;;-143.35;100.00;58682.94;5013539;28;20552;-48
2021/12/27 09:02:42;;;;;;;42.55;15.70;;;;;;;-143.35;100.00;58682.94;5001476;28;20037;-49
2021/12/27 09:05:08;;;;;;;38.65;17.20;;;;;;;-143.35;100.00;58682.94;4996331;28;20125;-50
2021/12/27 09:07:33;;;;;;;40.03;16.10;;;;;;;-143.35;100.00;58682.94;4996283;28;20108;-51
2021/12/27 09:09:59;;;;;;;35.67;16.92;;;;;;;-143.35;100.00;58682.94;4996197;28;20114;-52
2021/12/27 09:12:24;;;;;;;32.75;15.55;;;;;;;-143.35;100.00;58682.94;4996147;28;20049;-50
2021/12/27 09:14:50;;;;;;;33.72;15.70;;;;;;;-143.35;100.00;58682.94;4996163;28;20062;-49
2021/12/27 09:17:16;;;;;;;33.17;15.23;;;;;;;-143.35;100.00;58682.94;4996133;28;20022;-48
2021/12/27 09:19:42;;;;;;;29.60;16.17;;;;;;;-143.35;100.00;58682.94;4996200;28;20430;-50
2021/12/27 09:22:08;;;;;;;42.30;18.25;;;;;;;-143.35;100.00;58682.94;4996078;28;20386;-49
2021/12/27 09:24:34;;;;;;;39.85;16.77;;;;;;;-143.35;100.00;58682.94;4996308;28;20441;-49
2021/12/27 09:26:59;;;;;;;41.30;17.95;;;;;;;-143.35;100.00;58682.94;4996095;28;20036;-51
2021/12/27 09:29:25;;;;;;;37.47;18.23;;;;;;;-143.35;100.00;58682.94;4996022;28;20468;-49
2021/12/27 09:31:50;;;;;;;39.45;18.35;;;;;;;-143.35;100.00;58682.94;4995873;28;20044;-48
2021/12/27 09:34:17;;;;;;;37.05;17.42;;;;;;;-143.35;100.00;58682.94;4995846;28;20540;-50
2021/12/27 09:36:43;;;;;;;37.30;17.73;;;;;;;-143.35;100.00;58682.94;4995806;28;20125;-51
2021/12/27 09:39:08;;;;;;;32.67;16.20;;;;;;;-143.35;100.00;58682.94;4995801;28;20208;-51
2021/12/27 09:41:34;;;;;;;37.00;18.45;;;;;;;-143.35;100.00;58682.94;4995572;28;20496;-51
2021/12/27 09:43:59;;;;;;;36.50;17.52;;;;;;;-143.35;100.00;58682.94;4995459;28;20030;-48
2021/12/27 09:46:25;;;;;;;36.05;17.73;;;;;;;-143.35;100.00;58682.94;4995516;28;20022;-50
2021/12/27 09:48:54;;;;;;;37.17;17.33;;;;;;;-143.35;100.00;58682.94;4995590;28;20034;-48
2021/12/27 09:51:19;;;;;;;40.72;17.30;;;;;;;-143.35;100.00;58682.94;4995443;28;20038;-51
2021/12/27 09:53:45;;;;;;;37.80;18.38;;;;;;;-143.35;100.00;58682.94;4995434;28;20038;-51
2021/12/27 09:56:11;;;;;;;38.92;17.83;;;;;;;-143.35;100.00;58682.94;4995467;28;20425;-50
2021/12/27 09:58:38;;;;;;;31.42;17.52;;;;;;;-143.35;100.00;58682.94;4995265;28;20026;-47
2021/12/27 10:01:05;;;;;;;33.78;17.17;;;;;;;-143.35;100.00;58682.94;4995281;28;20125;-49
2021/12/27 10:03:43;;;;;;;41.95;19.90;;;;;;;-143.35;100.00;58682.94;4995231;28;20488;-47
2021/12/27 10:06:10;;;;;;;42.20;19.95;;;;;;;-143.35;100.00;58682.94;4995184;28;20081;-49
2021/12/27 10:08:36;;;;;;;40.42;19.60;;;;;;;-143.35;100.00;58682.94;4995162;28;20022;-50
2021/12/27 10:11:01;;;;;;;43.67;21.20;;;;;;;-143.35;100.00;58682.94;4994273;28;20101;-50
2021/12/27 10:13:27;;;;;;;37.08;20.58;;;;;;;-143.35;100.00;58682.94;4994823;28;20405;-50
2021/12/27 10:15:52;;;;;;;41.13;20.80;;;;;;;-143.35;100.00;58682.94;4995163;28;20061;-48
2021/12/27 10:18:17;;;;;;;33.58;18.77;;;;;;;-143.35;100.00;58682.94;4994991;28;20081;-49
2021/12/27 10:20:44;;;;;;;41.05;20.80;;;;;;;-143.35;100.00;58682.94;4994895;28;20080;-48
2021/12/27 10:23:12;;;;;;;44.22;23.05;;;;;;;-143.35;100.00;58682.94;4994912;28;20073;-49
2021/12/27 10:25:38;;;;;;;45.38;22.90;;;;;;;-143.35;100.00;58682.94;4994869;28;20026;-49
2021/12/27 10:28:06;;;;;;;43.55;21.95;;;;;;;-143.35;100.00;58682.94;4994888;28;20470;-50
2021/12/27 10:30:34;;;;;;;40.25;20.85;;;;;;;-143.35;100.00;58682.94;4994911;28;20026;-48
2021/12/27 10:33:11;;;;;;;48.40;22.40;;;;;;;-143.35;100.00;58682.94;4994784;28;20026;-49
2021/12/27 10:35:40;;;;;;;37.35;21.45;;;;;;;-143.35;100.00;58682.94;4994851;28;20026;-49
2021/12/27 10:38:31;;;;;;;42.60;21.27;;;;;;;-143.35;100.00;58682.94;4994743;28;20030;-48
2021/12/27 10:40:58;;;;;;;;;;;;;;;-143.35;100.00;58682.94;4994932;28;20043;-47
2021/12/27 10:43:32;;;;;;;37.72;20.00;;;;;;;-143.35;100.00;58682.94;4994751;28;19914;-50
2021/12/27 10:46:04;;;;;;;42.05;20.90;;;;;;;-143.35;100.00;58682.94;4995139;28;20026;-48
2021/12/27 10:48:35;;;;;;;38.47;20.60;;;;;;;-143.35;100.00;58682.94;4994812;28;20037;-47